Time;durP1;ratioP1;P1;durP2;ratioP2;P2;SDS_P1;SDS_P2;PMS_P1;PMS_P2;Temp;Humidity;BMP_temperature;BMP_pressure;BME280_temperature;BME280_humidity;BME280_pressure;Samples;Min_cycle;Max_cycle;Signal;HPM_P1;HPM_P2
2023/08/06 00:00:26;;;;;;;2.58;2.38;;;14.10;99.90;;;;;;5082788;28;20109;-73
2023/08/06 00:02:52;;;;;;;2.15;1.95;;;14.10;99.90;;;;;;5079600;28;20482;-72
2023/08/06 00:05:23;;;;;;;4.80;2.28;;;14.10;99.90;;;;;;5048112;28;20129;-72
2023/08/06 00:07:50;;;;;;;2.28;2.08;;;14.10;99.90;;;;;;5065532;28;20129;-72
2023/08/06 00:10:16;;;;;;;2.50;2.30;;;14.00;99.90;;;;;;5081485;28;20051;-72
2023/08/06 00:12:43;;;;;;;4.72;2.67;;;13.90;99.90;;;;;;5065932;28;20063;-72
2023/08/06 00:15:10;;;;;;;2.75;2.20;;;13.90;99.90;;;;;;5046973;28;20127;-72
2023/08/06 00:17:36;;;;;;;2.40;2.20;;;13.90;99.90;;;;;;5066635;28;20106;-72
2023/08/06 00:20:04;;;;;;;8.98;2.28;;;13.80;99.90;;;;;;5064831;28;20053;-72
2023/08/06 00:22:34;;;;;;;2.40;2.20;;;13.90;99.90;;;;;;5064931;28;20051;-72
2023/08/06 00:25:00;;;;;;;3.25;2.20;;;13.80;99.90;;;;;;5066894;28;20056;-72
2023/08/06 00:27:26;;;;;;;2.58;2.20;;;13.80;99.90;;;;;;5065335;28;20407;-72
2023/08/06 00:29:52;;;;;;;3.75;2.20;;;13.80;99.90;;;;;;5064789;28;20059;-72
2023/08/06 00:32:18;;;;;;;2.80;2.60;;;13.90;99.90;;;;;;5063189;28;20048;-72
2023/08/06 00:34:43;;;;;;;2.83;2.40;;;13.90;99.90;;;;;;5065052;28;20051;-73
2023/08/06 00:37:09;;;;;;;5.32;2.20;;;13.80;99.90;;;;;;5047715;28;20045;-72
2023/08/06 00:39:35;;;;;;;2.63;2.38;;;13.90;99.90;;;;;;5048685;28;20072;-72
2023/08/06 00:42:00;;;;;;;2.60;2.40;;;13.80;99.90;;;;;;5064686;28;20036;-73
2023/08/06 00:44:26;;;;;;;3.30;2.40;;;13.80;99.90;;;;;;5064269;28;20123;-73
2023/08/06 00:46:52;;;;;;;4.85;2.70;;;13.90;99.90;;;;;;5064702;28;20127;-72
2023/08/06 00:49:18;;;;;;;2.15;2.05;;;13.90;99.90;;;;;;5047831;28;20044;-73
2023/08/06 00:51:44;;;;;;;3.05;2.42;;;13.90;99.90;;;;;;5065218;28;20110;-72
2023/08/06 00:54:10;;;;;;;4.05;2.58;;;14.00;99.90;;;;;;5064064;28;20040;-73
2023/08/06 00:56:37;;;;;;;3.50;3.20;;;13.90;99.90;;;;;;5065268;28;20470;-72
2023/08/06 00:59:06;;;;;;;3.03;2.33;;;14.00;99.90;;;;;;5064577;28;20045;-73
2023/08/06 01:01:32;;;;;;;2.93;2.17;;;13.90;99.90;;;;;;5064655;28;20502;-73
2023/08/06 01:03:58;;;;;;;4.68;2.90;;;13.90;99.90;;;;;;5081439;28;20793;-73
2023/08/06 01:06:52;;;;;;;3.45;2.75;;;13.90;99.90;;;;;;5063850;28;20052;-72
2023/08/06 01:09:53;;;;;;;2.78;2.58;;;14.00;99.90;;;;;;5036115;28;20052;-72
2023/08/06 01:12:34;;;;;;;2.67;2.47;;;14.10;99.90;;;;;;5066018;28;20487;-72
2023/08/06 01:15:23;;;;;;;2.65;2.47;;;14.00;99.90;;;;;;5067251;28;20052;-73
2023/08/06 01:17:50;;;;;;;4.03;3.35;;;14.00;99.90;;;;;;5068576;28;20616;-73
2023/08/06 01:20:15;;;;;;;3.05;2.80;;;14.10;99.90;;;;;;5067419;28;20055;-72
2023/08/06 01:22:41;;;;;;;3.35;3.05;;;14.00;99.90;;;;;;5068525;28;20044;-73
2023/08/06 01:25:07;;;;;;;8.30;3.15;;;14.00;99.90;;;;;;5068209;28;20052;-72
2023/08/06 01:27:49;;;;;;;3.83;3.20;;;14.00;99.90;;;;;;5067375;28;20123;-73
2023/08/06 01:30:22;;;;;;;2.72;2.53;;;14.00;99.90;;;;;;5055992;28;20288;-73
2023/08/06 01:32:53;;;;;;;5.18;2.88;;;14.00;99.90;;;;;;5067006;28;20048;-73
2023/08/06 01:35:21;;;;;;;3.28;2.83;;;14.00;99.90;;;;;;5068230;28;20047;-72
2023/08/06 01:37:48;;;;;;;6.25;2.83;;;14.00;99.90;;;;;;5068263;28;20049;-72
2023/08/06 01:40:14;;;;;;;2.95;2.72;;;14.00;99.90;;;;;;5067605;28;20066;-72
2023/08/06 01:42:39;;;;;;;7.90;3.10;;;13.90;99.90;;;;;;5068603;28;20461;-72
2023/08/06 01:45:07;;;;;;;7.78;2.72;;;14.00;99.90;;;;;;5066667;28;20063;-73
2023/08/06 01:47:33;;;;;;;10.07;3.20;;;13.90;99.90;;;;;;5068486;28;20091;-73
2023/08/06 01:49:58;;;;;;;6.05;3.08;;;14.00;99.90;;;;;;5049444;28;20471;-72
2023/08/06 01:52:24;;;;;;;5.47;3.08;;;13.90;99.90;;;;;;5068322;28;20056;-73
2023/08/06 01:54:50;;;;;;;3.55;2.75;;;13.90;99.90;;;;;;5068401;28;20441;-73
2023/08/06 01:57:16;;;;;;;3.05;2.80;;;13.80;99.90;;;;;;5067668;28;20506;-72
2023/08/06 01:59:41;;;;;;;4.45;3.00;;;13.80;99.90;;;;;;5067695;28;20048;-72
2023/08/06 02:02:07;;;;;;;3.63;3.00;;;13.80;99.90;;;;;;5066845;28;20040;-72
2023/08/06 02:04:33;;;;;;;3.30;2.92;;;13.80;99.90;;;;;;5051803;28;20520;-72
2023/08/06 02:06:58;;;;;;;4.60;2.78;;;13.80;99.90;;;;;;5066478;28;20059;-72
2023/08/06 02:09:24;;;;;;;9.02;2.63;;;13.70;99.90;;;;;;5051207;28;20039;-73
2023/08/06 02:11:50;;;;;;;5.10;3.00;;;13.80;99.90;;;;;;5066498;28;20040;-73
2023/08/06 02:14:15;;;;;;;3.03;2.72;;;13.70;99.90;;;;;;5067240;28;20409;-73
2023/08/06 02:16:41;;;;;;;3.00;2.80;;;13.70;99.90;;;;;;5066669;28;20044;-72
2023/08/06 02:19:07;;;;;;;4.15;2.80;;;13.70;99.90;;;;;;5066725;28;20379;-73
2023/08/06 02:21:33;;;;;;;5.55;3.17;;;13.70;99.90;;;;;;5067205;28;20044;-72
2023/08/06 02:23:59;;;;;;;3.97;3.17;;;13.70;99.90;;;;;;5050076;28;20045;-73
2023/08/06 02:26:24;;;;;;;8.77;3.40;;;13.70;99.90;;;;;;5067339;28;20040;-73
2023/08/06 02:28:50;;;;;;;5.78;3.05;;;13.70;99.90;;;;;;5067902;28;20041;-73
2023/08/06 02:31:16;;;;;;;3.55;3.10;;;13.70;99.90;;;;;;5067474;28;20044;-73
2023/08/06 02:33:41;;;;;;;5.60;3.55;;;13.80;99.90;;;;;;5049662;28;20055;-73
2023/08/06 02:36:07;;;;;;;6.40;2.83;;;13.70;99.90;;;;;;5066654;28;20131;-72
2023/08/06 02:38:33;;;;;;;3.75;3.33;;;13.80;99.90;;;;;;5066991;28;20049;-72
2023/08/06 02:40:59;;;;;;;3.95;3.22;;;13.80;99.90;;;;;;5066173;28;20041;-73
2023/08/06 02:43:24;;;;;;;7.32;2.70;;;13.80;99.90;;;;;;5065522;28;20056;-73
2023/08/06 02:45:50;;;;;;;3.63;3.33;;;13.80;99.90;;;;;;5049253;28;20040;-73
2023/08/06 02:48:18;;;;;;;5.18;2.92;;;13.80;99.90;;;;;;5067077;28;20093;-73
2023/08/06 02:50:44;;;;;;;4.18;3.03;;;13.70;99.90;;;;;;5049281;28;20067;-73
2023/08/06 02:53:10;;;;;;;3.38;3.08;;;13.80;99.90;;;;;;5066557;28;20040;-72
2023/08/06 02:55:36;;;;;;;5.22;3.03;;;13.80;99.90;;;;;;5065756;28;20055;-73
2023/08/06 02:58:02;;;;;;;3.47;2.63;;;13.90;99.90;;;;;;5049840;28;20055;-73
2023/08/06 03:00:28;;;;;;;3.20;3.00;;;13.80;99.90;;;;;;5065744;28;20629;-73
2023/08/06 03:02:54;;;;;;;4.38;3.42;;;13.90;99.90;;;;;;5065437;28;20049;-73
2023/08/06 03:05:20;;;;;;;5.03;3.55;;;13.90;99.90;;;;;;5050199;28;20052;-73
2023/08/06 03:07:45;;;;;;;7.43;3.03;;;13.90;99.90;;;;;;5065516;28;20565;-73
2023/08/06 03:10:11;;;;;;;5.10;2.75;;;13.90;99.90;;;;;;5033238;28;20459;-73
2023/08/06 03:12:37;;;;;;;5.47;2.95;;;13.90;99.90;;;;;;5064760;28;20135;-73
2023/08/06 03:15:03;;;;;;;2.92;2.70;;;13.90;99.90;;;;;;5066872;28;20048;-73
2023/08/06 03:17:28;;;;;;;3.35;2.85;;;13.80;99.90;;;;;;5065434;28;20571;-73
2023/08/06 03:19:54;;;;;;;3.92;2.88;;;13.90;99.90;;;;;;5032198;28;20056;-73
2023/08/06 03:22:21;;;;;;;4.05;3.30;;;13.90;99.90;;;;;;5065646;28;20041;-73
2023/08/06 03:24:51;;;;;;;3.30;3.00;;;13.80;99.90;;;;;;5065270;28;20552;-74
2023/08/06 03:27:17;;;;;;;4.47;2.85;;;14.00;99.90;;;;;;5065953;28;20048;-73
2023/08/06 03:29:43;;;;;;;5.28;3.10;;;13.90;99.90;;;;;;5048463;28;20053;-73
2023/08/06 03:32:08;;;;;;;3.90;2.88;;;13.90;99.90;;;;;;5066913;28;20110;-73
2023/08/06 03:34:34;;;;;;;3.13;2.92;;;13.80;99.90;;;;;;5064321;28;20120;-73
2023/08/06 03:37:00;;;;;;;3.00;2.80;;;13.80;99.90;;;;;;5049295;28;20074;-73
2023/08/06 03:39:26;;;;;;;3.80;3.03;;;13.80;99.90;;;;;;5066156;28;20376;-73
2023/08/06 03:41:51;;;;;;;3.10;2.90;;;13.90;99.90;;;;;;5064002;28;20102;-73
2023/08/06 03:44:17;;;;;;;4.05;2.88;;;13.90;99.90;;;;;;5065782;28;20476;-73
2023/08/06 03:46:43;;;;;;;3.08;2.70;;;13.90;99.90;;;;;;5047891;28;20060;-73
2023/08/06 03:49:08;;;;;;;2.63;2.45;;;13.90;99.90;;;;;;5066411;28;20060;-73
2023/08/06 03:51:34;;;;;;;2.65;2.45;;;13.90;99.90;;;;;;5047472;28;20059;-73
2023/08/06 03:54:00;;;;;;;3.00;2.53;;;13.90;99.90;;;;;;5066069;28;20058;-72
2023/08/06 03:56:26;;;;;;;2.50;2.40;;;13.80;99.90;;;;;;5065006;28;20506;-73
2023/08/06 03:58:51;;;;;;;3.35;3.05;;;13.90;99.90;;;;;;5048147;28;20498;-73
2023/08/06 04:01:17;;;;;;;5.18;3.00;;;13.90;99.90;;;;;;5065991;28;20044;-73
2023/08/06 04:03:42;;;;;;;4.88;2.95;;;13.90;99.90;;;;;;5080945;28;20475;-73
2023/08/06 04:06:08;;;;;;;3.38;3.10;;;14.00;99.90;;;;;;5066069;28;20044;-74
2023/08/06 04:08:34;;;;;;;3.40;3.10;;;14.00;99.90;;;;;;5063763;28;20056;-73
2023/08/06 04:11:00;;;;;;;4.50;2.88;;;14.00;99.90;;;;;;5065801;28;20040;-73
2023/08/06 04:13:25;;;;;;;5.25;2.75;;;14.00;99.90;;;;;;5064069;28;20045;-73
2023/08/06 04:15:51;;;;;;;7.65;3.10;;;14.10;99.90;;;;;;5064890;28;20056;-73
2023/08/06 04:18:17;;;;;;;2.75;2.55;;;14.00;99.90;;;;;;5065871;28;20076;-73
2023/08/06 04:20:47;;;;;;;9.23;3.40;;;14.00;99.90;;;;;;5064350;28;20053;-73
2023/08/06 04:23:13;;;;;;;3.88;2.67;;;14.00;99.90;;;;;;5048993;28;20049;-73
2023/08/06 04:25:38;;;;;;;3.75;3.25;;;14.10;99.90;;;;;;5046788;28;20083;-73
2023/08/06 04:28:05;;;;;;;3.55;3.25;;;14.10;99.90;;;;;;5065609;28;20087;-73
2023/08/06 04:30:31;;;;;;;4.20;3.03;;;14.00;99.90;;;;;;5064315;28;20514;-73
2023/08/06 04:32:57;;;;;;;4.10;3.05;;;14.00;99.90;;;;;;5049188;28;20045;-72
2023/08/06 04:35:23;;;;;;;3.13;2.80;;;14.10;99.90;;;;;;5048187;28;20040;-73
2023/08/06 04:37:49;;;;;;;3.53;2.80;;;14.10;99.90;;;;;;5064660;28;20387;-73
2023/08/06 04:40:14;;;;;;;3.58;3.28;;;14.10;99.90;;;;;;5065930;28;20045;-73
2023/08/06 04:42:40;;;;;;;3.97;2.90;;;14.10;99.90;;;;;;5063575;28;20045;-73
2023/08/06 04:45:06;;;;;;;3.65;3.45;;;14.10;99.90;;;;;;5048828;28;20048;-73
2023/08/06 04:47:32;;;;;;;3.03;2.83;;;14.10;99.90;;;;;;5048810;28;20060;-73
2023/08/06 04:49:58;;;;;;;5.25;2.78;;;14.20;99.90;;;;;;5069854;28;20513;-73
2023/08/06 04:52:27;;;;;;;4.15;3.45;;;14.20;99.90;;;;;;5068775;28;20070;-73
2023/08/06 04:54:53;;;;;;;4.17;3.50;;;14.20;99.90;;;;;;5052234;28;20491;-73
2023/08/06 04:57:19;;;;;;;3.28;3.08;;;14.20;99.90;;;;;;5069308;28;20295;-73
2023/08/06 04:59:45;;;;;;;3.22;3.00;;;14.20;99.90;;;;;;5050803;28;20048;-74
2023/08/06 05:02:11;;;;;;;3.80;3.50;;;14.30;99.90;;;;;;5069932;28;20045;-73
2023/08/06 05:04:37;;;;;;;4.40;2.80;;;14.40;99.90;;;;;;5067272;28;20406;-74
2023/08/06 05:07:03;;;;;;;5.82;3.65;;;14.40;99.90;;;;;;5068844;28;20097;-73
2023/08/06 05:09:29;;;;;;;4.20;3.20;;;14.40;99.90;;;;;;5067096;28;20051;-73
2023/08/06 05:11:55;;;;;;;3.75;3.15;;;14.40;99.90;;;;;;5052346;28;20052;-73
2023/08/06 05:14:20;;;;;;;3.78;3.47;;;14.60;99.90;;;;;;5068943;28;20040;-73
2023/08/06 05:16:46;;;;;;;4.95;3.20;;;14.60;99.90;;;;;;5050570;28;20083;-72
2023/08/06 05:19:12;;;;;;;4.55;3.80;;;14.60;99.90;;;;;;5068994;28;20406;-73
2023/08/06 05:21:37;;;;;;;5.07;4.40;;;14.70;99.90;;;;;;5066971;28;20171;-73
2023/08/06 05:24:03;;;;;;;5.05;4.18;;;14.80;99.90;;;;;;5069242;28;20056;-73
2023/08/06 05:26:29;;;;;;;4.78;4.22;;;14.80;99.90;;;;;;5066345;28;20110;-73
2023/08/06 05:28:55;;;;;;;5.18;4.00;;;14.90;99.90;;;;;;5068941;28;20076;-73
2023/08/06 05:31:20;;;;;;;6.60;4.85;;;15.00;99.90;;;;;;5067996;28;20486;-73
2023/08/06 05:33:46;;;;;;;4.47;4.05;;;15.10;99.90;;;;;;5051140;28;20036;-73
2023/08/06 05:36:12;;;;;;;6.43;4.00;;;15.10;99.90;;;;;;5051872;28;20068;-73
2023/08/06 05:38:37;;;;;;;4.43;4.03;;;15.00;99.90;;;;;;5066376;28;20040;-73
2023/08/06 05:41:03;;;;;;;5.90;4.13;;;15.00;99.90;;;;;;5069031;28;20122;-73
2023/08/06 05:43:29;;;;;;;6.68;3.75;;;15.00;99.90;;;;;;5033170;28;20079;-73
2023/08/06 05:45:56;;;;;;;4.28;3.88;;;14.90;99.90;;;;;;5052086;28;20111;-73
2023/08/06 05:48:24;;;;;;;3.42;3.13;;;14.90;99.90;;;;;;5066584;28;20051;-73
2023/08/06 05:50:51;;;;;;;4.80;3.95;;;15.00;99.90;;;;;;5068225;28;20041;-73
2023/08/06 05:53:17;;;;;;;3.67;3.42;;;14.90;99.90;;;;;;5051511;28;20106;-73
2023/08/06 05:55:43;;;;;;;4.70;4.15;;;14.90;99.90;;;;;;5067698;28;20445;-73
2023/08/06 05:58:09;;;;;;;3.70;3.40;;;15.00;99.90;;;;;;5067793;28;20125;-73
2023/08/06 06:00:35;;;;;;;4.22;3.47;;;15.00;99.90;;;;;;5049595;28;20048;-73
2023/08/06 06:03:01;;;;;;;4.20;3.75;;;15.00;99.90;;;;;;5068520;28;20080;-73
2023/08/06 06:05:27;;;;;;;5.43;3.78;;;15.00;99.90;;;;;;5066539;28;20036;-73
2023/08/06 06:07:53;;;;;;;4.95;3.50;;;15.10;99.90;;;;;;5067834;28;20051;-73
2023/08/06 06:10:18;;;;;;;3.50;3.10;;;15.10;99.90;;;;;;5066289;28;20106;-73
2023/08/06 06:12:44;;;;;;;6.63;3.13;;;15.10;99.90;;;;;;5067077;28;20041;-73
2023/08/06 06:15:10;;;;;;;5.53;3.13;;;15.20;99.90;;;;;;5068252;28;20517;-73
2023/08/06 06:17:36;;;;;;;3.20;3.00;;;15.20;99.90;;;;;;5065893;28;20036;-73
2023/08/06 06:20:04;;;;;;;3.70;3.08;;;15.20;99.90;;;;;;5067501;28;20079;-73
2023/08/06 06:22:29;;;;;;;4.32;3.20;;;15.20;99.90;;;;;;5065902;28;20169;-73
2023/08/06 06:24:55;;;;;;;3.92;3.00;;;15.30;99.90;;;;;;5062092;28;20441;-73
2023/08/06 06:27:21;;;;;;;3.55;3.22;;;15.30;99.90;;;;;;5066232;28;20044;-73
2023/08/06 06:29:46;;;;;;;3.35;3.05;;;15.30;99.90;;;;;;5050106;28;20068;-74
2023/08/06 06:32:12;;;;;;;3.70;3.15;;;15.30;99.90;;;;;;5066837;28;20048;-73
2023/08/06 06:34:38;;;;;;;3.63;3.33;;;15.20;99.90;;;;;;5065967;28;20079;-73
2023/08/06 06:37:04;;;;;;;5.57;3.40;;;15.30;99.90;;;;;;5067482;28;20486;-74
2023/08/06 06:39:30;;;;;;;3.55;3.25;;;15.50;99.90;;;;;;5048971;28;20510;-73
2023/08/06 06:41:55;;;;;;;4.07;3.75;;;15.50;99.90;;;;;;5041827;28;20169;-73
2023/08/06 06:44:21;;;;;;;3.45;3.15;;;15.70;99.90;;;;;;5066135;28;20040;-73
2023/08/06 06:46:47;;;;;;;3.17;2.90;;;15.80;99.90;;;;;;5049968;28;20483;-73
2023/08/06 06:49:13;;;;;;;5.28;3.25;;;15.80;99.90;;;;;;5065435;28;20121;-74
2023/08/06 06:51:38;;;;;;;3.40;3.10;;;15.80;99.90;;;;;;5049501;28;20036;-73
2023/08/06 06:54:04;;;;;;;4.72;3.13;;;15.90;99.90;;;;;;5067285;28;20068;-73
2023/08/06 06:56:30;;;;;;;7.63;3.40;;;16.00;99.90;;;;;;5065325;28;20056;-74
2023/08/06 06:58:55;;;;;;;4.45;2.90;;;16.00;99.90;;;;;;5066279;28;20056;-73
2023/08/06 07:01:21;;;;;;;3.25;2.70;;;16.10;99.90;;;;;;5032298;28;20048;-73
2023/08/06 07:03:47;;;;;;;3.40;3.00;;;16.20;99.90;;;;;;5066325;28;20427;-74
2023/08/06 07:06:13;;;;;;;3.17;2.38;;;16.30;99.90;;;;;;5065200;28;20492;-74
2023/08/06 07:08:38;;;;;;;3.42;3.13;;;16.50;99.90;;;;;;5066282;28;20444;-73
2023/08/06 07:11:06;;;;;;;2.70;2.55;;;16.60;99.90;;;;;;5064294;28;20063;-73
2023/08/06 07:13:33;;;;;;;3.40;2.67;;;16.60;99.90;;;;;;5049624;28;20142;-74
2023/08/06 07:15:59;;;;;;;3.60;3.03;;;16.70;99.90;;;;;;5067653;28;20082;-73
2023/08/06 07:18:25;;;;;;;4.32;3.00;;;16.90;99.90;;;;;;5065215;28;20048;-73
2023/08/06 07:20:53;;;;;;;3.03;2.50;;;17.00;99.90;;;;;;5066154;28;20573;-74
2023/08/06 07:23:21;;;;;;;2.63;2.45;;;17.20;99.90;;;;;;5065165;28;20114;-73
2023/08/06 07:25:47;;;;;;;4.22;2.85;;;17.10;99.90;;;;;;5065529;28;20041;-73
2023/08/06 07:28:13;;;;;;;3.28;3.00;;;17.20;99.90;;;;;;5065358;28;20048;-73
2023/08/06 07:30:40;;;;;;;2.80;2.60;;;17.30;99.90;;;;;;5062917;28;20041;-73
2023/08/06 07:33:06;;;;;;;2.72;2.53;;;17.20;99.90;;;;;;5066488;28;20510;-73
2023/08/06 07:35:32;;;;;;;4.55;2.75;;;17.20;99.90;;;;;;5064698;28;20056;-73
2023/08/06 07:37:57;;;;;;;5.15;2.88;;;17.20;99.90;;;;;;5049154;28;20037;-72
2023/08/06 07:40:23;;;;;;;2.97;2.63;;;17.50;99.90;;;;;;5063666;28;20048;-73
2023/08/06 07:42:49;;;;;;;2.45;2.35;;;17.90;99.90;;;;;;5066125;28;20044;-72
2023/08/06 07:45:15;;;;;;;2.70;2.50;;;18.20;99.90;;;;;;5064904;28;20127;-73
2023/08/06 07:47:41;;;;;;;4.90;3.47;;;18.60;99.90;;;;;;5060369;28;20095;-73
2023/08/06 07:50:07;;;;;;;2.25;2.15;;;18.80;99.90;;;;;;5049168;28;20037;-72
2023/08/06 07:52:33;;;;;;;4.88;2.47;;;19.00;99.90;;;;;;5064789;28;20044;-73
2023/08/06 07:54:58;;;;;;;2.20;2.03;;;19.30;99.90;;;;;;5064752;28;20122;-73
2023/08/06 07:57:24;;;;;;;2.38;2.10;;;19.60;99.90;;;;;;5047823;28;20080;-73
2023/08/06 07:59:50;;;;;;;2.40;2.20;;;19.70;99.90;;;;;;5048852;28;20084;-74
2023/08/06 08:02:16;;;;;;;2.88;2.58;;;19.90;99.90;;;;;;5030478;28;20048;-73
2023/08/06 08:04:41;;;;;;;3.63;2.33;;;19.70;99.90;;;;;;5065948;28;20048;-73
2023/08/06 08:07:09;;;;;;;1.88;1.77;;;19.80;99.90;;;;;;5048420;28;20052;-73
2023/08/06 08:09:35;;;;;;;2.40;2.30;;;19.60;99.90;;;;;;5081966;28;20483;-73
2023/08/06 08:12:02;;;;;;;1.75;1.65;;;19.70;99.90;;;;;;5064662;28;20411;-73
2023/08/06 08:14:28;;;;;;;1.67;1.58;;;19.60;99.90;;;;;;5047545;28;20113;-72
2023/08/06 08:16:54;;;;;;;1.80;1.70;;;19.50;99.90;;;;;;5065300;28;20040;-73
2023/08/06 08:19:21;;;;;;;1.60;1.50;;;19.40;99.90;;;;;;5063088;28;20127;-72
2023/08/06 08:21:46;;;;;;;2.58;1.90;;;19.30;99.90;;;;;;5067567;28;20090;-73
2023/08/06 08:24:12;;;;;;;2.55;1.70;;;19.30;99.90;;;;;;5067915;28;20049;-73
2023/08/06 08:26:38;;;;;;;3.00;1.90;;;19.50;99.90;;;;;;5063277;28;20048;-73
2023/08/06 08:29:04;;;;;;;1.98;1.88;;;19.60;99.90;;;;;;5062224;28;20206;-72
2023/08/06 08:31:29;;;;;;;1.95;1.85;;;19.80;99.90;;;;;;5052942;28;20458;-73
2023/08/06 08:33:55;;;;;;;1.85;1.75;;;19.90;99.90;;;;;;5070704;28;20052;-72
2023/08/06 08:36:21;;;;;;;1.60;1.55;;;20.10;99.90;;;;;;5054120;28;20040;-72
2023/08/06 08:38:47;;;;;;;2.00;1.90;;;20.10;99.90;;;;;;5055840;28;20527;-72
2023/08/06 08:41:13;;;;;;;2.50;2.30;;;20.10;99.90;;;;;;5053709;28;20163;-72
2023/08/06 08:43:41;;;;;;;2.45;2.25;;;20.00;99.90;;;;;;5072275;28;20494;-72
2023/08/06 08:46:09;;;;;;;5.43;2.30;;;19.90;99.90;;;;;;5071253;28;20081;-72
2023/08/06 08:48:35;;;;;;;3.17;2.10;;;19.90;99.90;;;;;;5072586;28;20471;-73
2023/08/06 08:51:02;;;;;;;2.53;2.33;;;20.10;99.90;;;;;;5071709;28;20041;-72
2023/08/06 08:53:28;;;;;;;2.10;1.90;;;19.90;99.90;;;;;;5070518;28;20115;-73
2023/08/06 08:55:55;;;;;;;1.65;1.55;;;19.30;99.90;;;;;;5071388;28;20057;-73
2023/08/06 08:58:21;;;;;;;3.35;1.88;;;19.30;99.90;;;;;;5053708;28;20040;-72
2023/08/06 09:00:48;;;;;;;1.90;1.80;;;19.50;99.90;;;;;;5069506;28;20045;-72
2023/08/06 09:03:14;;;;;;;2.10;2.00;;;19.60;99.90;;;;;;5070949;28;20056;-71
2023/08/06 09:05:44;;;;;;;3.55;2.05;;;19.80;99.90;;;;;;5071247;28;20049;-71
2023/08/06 09:08:12;;;;;;;1.67;1.58;;;19.30;99.90;;;;;;5071578;28;20163;-71
2023/08/06 09:10:40;;;;;;;1.48;1.38;;;19.30;99.90;;;;;;5070156;28;20036;-71
2023/08/06 09:13:06;;;;;;;1.50;1.40;;;19.50;99.90;;;;;;5072517;28;20055;-72
2023/08/06 09:15:33;;;;;;;1.58;1.48;;;19.40;99.90;;;;;;5079784;28;20044;-72
2023/08/06 09:17:59;;;;;;;1.52;1.42;;;19.00;99.90;;;;;;5070155;28;20209;-71
2023/08/06 09:20:25;;;;;;;1.50;1.40;;;18.90;99.90;;;;;;5080019;28;20214;-71
2023/08/06 09:22:53;;;;;;;2.60;1.70;;;19.00;99.90;;;;;;5071804;28;20514;-71
2023/08/06 09:25:24;;;;;;;1.63;1.52;;;19.00;99.90;;;;;;5071334;28;20075;-71
2023/08/06 09:27:51;;;;;;;1.50;1.40;;;19.20;99.90;;;;;;5071402;28;20051;-72
2023/08/06 09:30:31;;;;;;;0.82;0.82;;;19.40;99.90;;;;;;5073011;28;20080;-71
2023/08/06 09:32:57;;;;;;;3.22;1.15;;;19.50;99.90;;;;;;5067672;28;20048;-71
2023/08/06 09:35:24;;;;;;;3.75;1.00;;;19.70;99.90;;;;;;5070869;28;20056;-72
2023/08/06 09:37:50;;;;;;;4.00;0.98;;;19.90;99.90;;;;;;5068256;28;20390;-71
2023/08/06 09:40:42;;;;;;;1.00;1.00;;;20.10;99.90;;;;;;5069896;28;20048;-71
2023/08/06 09:43:08;;;;;;;2.10;1.15;;;20.30;99.90;;;;;;5065934;28;20067;-71
2023/08/06 09:45:38;;;;;;;1.58;1.08;;;20.40;99.90;;;;;;5066597;28;20040;-71
2023/08/06 09:48:08;;;;;;;0.75;0.75;;;20.40;99.90;;;;;;5064859;28;20517;-71
2023/08/06 09:50:39;;;;;;;2.10;1.00;;;20.50;99.90;;;;;;5066996;28;20450;-71
2023/08/06 09:53:08;;;;;;;0.80;0.80;;;20.60;99.90;;;;;;5067252;28;20120;-71
2023/08/06 09:55:34;;;;;;;2.83;0.85;;;20.70;99.90;;;;;;5066239;28;20057;-71
2023/08/06 09:58:00;;;;;;;2.88;0.85;;;20.60;97.30;;;;;;5066432;28;20534;-70
2023/08/06 10:00:28;;;;;;;0.68;0.68;;;20.40;77.70;;;;;;5067542;28;20051;-70
2023/08/06 10:02:56;;;;;;;0.93;0.60;;;20.10;50.80;;;;;;5066139;28;20044;-70
2023/08/06 10:05:23;;;;;;;0.70;0.70;;;20.10;71.60;;;;;;5067578;28;20052;-70
2023/08/06 10:07:50;;;;;;;0.90;0.77;;;20.40;87.80;;;;;;5066429;28;20075;-70
2023/08/06 10:10:19;;;;;;;2.45;0.93;;;20.60;68.70;;;;;;5068522;28;20048;-70
2023/08/06 10:12:54;;;;;;;0.70;0.70;;;20.60;51.90;;;;;;5048657;28;20074;-70
2023/08/06 10:15:29;;;;;;;0.90;0.90;;;20.60;33.00;;;;;;5065833;28;20086;-70
2023/08/06 10:17:58;;;;;;;0.65;0.65;;;20.40;43.20;;;;;;5051474;28;20075;-70
2023/08/06 10:20:24;;;;;;;1.20;0.87;;;20.30;52.40;;;;;;5065297;28;20060;-70
2023/08/06 10:23:17;;;;;;;0.70;0.70;;;20.10;27.00;;;;;;5073552;28;20565;-70
2023/08/06 10:25:43;;;;;;;1.80;1.00;;;20.10;54.50;;;;;;5069386;28;20064;-70
2023/08/06 10:28:11;;;;;;;0.63;0.63;;;20.20;44.80;;;;;;5067490;28;20064;-70
2023/08/06 10:30:47;;;;;;;0.98;0.70;;;20.30;44.70;;;;;;5068898;28;20111;-69
2023/08/06 10:33:13;;;;;;;0.55;0.55;;;20.40;56.30;;;;;;5065624;28;20040;-70
2023/08/06 10:35:53;;;;;;;0.70;0.68;;;20.70;71.40;;;;;;5050221;28;20455;-69
2023/08/06 10:38:26;;;;;;;0.60;0.60;;;20.80;29.40;;;;;;5048145;28;20029;-69
2023/08/06 10:40:54;;;;;;;0.73;0.60;;;20.70;32.60;;;;;;5066104;28;20143;-69
2023/08/06 10:43:39;;;;;;;0.63;0.60;;;20.70;35.70;;;;;;5049570;28;20056;-69
2023/08/06 10:46:21;;;;;;;1.15;0.70;;;20.60;25.80;;;;;;5065673;28;20049;-69
2023/08/06 10:48:47;;;;;;;0.50;0.50;;;20.60;15.50;;;;;;5065422;28;20394;-69
2023/08/06 10:51:14;;;;;;;0.60;0.60;;;20.50;28.10;;;;;;5065465;28;20045;-69
2023/08/06 10:53:48;;;;;;;0.63;0.60;;;20.40;31.00;;;;;;5066372;28;20050;-69
2023/08/06 10:56:15;;;;;;;1.02;0.80;;;20.40;28.30;;;;;;5067217;28;20074;-69
2023/08/06 10:58:42;;;;;;;1.35;0.80;;;20.50;15.30;;;;;;5066575;28;20049;-69
2023/08/06 11:01:08;;;;;;;0.65;0.65;;;20.50;35.70;;;;;;5067333;28;20405;-68
2023/08/06 11:03:34;;;;;;;0.63;0.63;;;20.50;24.10;;;;;;5065142;28;20436;-68
2023/08/06 11:06:00;;;;;;;1.20;0.55;;;20.50;27.00;;;;;;5066137;28;20049;-69
2023/08/06 11:08:27;;;;;;;0.65;0.65;;;20.50;37.60;;;;;;5064925;28;20041;-68
2023/08/06 11:10:53;;;;;;;0.70;0.70;;;20.70;58.50;;;;;;5049522;28;20135;-69
2023/08/06 11:13:20;;;;;;;2.33;1.05;;;20.80;70.20;;;;;;5064358;28;20076;-68
2023/08/06 11:15:46;;;;;;;1.25;0.80;;;20.90;61.80;;;;;;5080098;28;20040;-69
2023/08/06 11:18:12;;;;;;;2.05;0.63;;;20.80;78.50;;;;;;5066083;28;20044;-68
2023/08/06 11:20:39;;;;;;;0.70;0.60;;;20.70;65.90;;;;;;5065801;28;20119;-68
2023/08/06 11:23:05;;;;;;;0.60;0.52;;;20.80;83.20;;;;;;5062992;28;20044;-68
2023/08/06 11:25:31;;;;;;;0.70;0.70;;;20.70;83.60;;;;;;5064542;28;20043;-68
2023/08/06 11:27:57;;;;;;;1.23;0.80;;;20.60;84.80;;;;;;5082852;28;20576;-69
2023/08/06 11:30:22;;;;;;;0.93;0.63;;;20.70;94.90;;;;;;5064136;28;20057;-68
2023/08/06 11:32:49;;;;;;;0.57;0.57;;;20.70;91.90;;;;;;5065785;28;20048;-68
2023/08/06 11:35:15;;;;;;;0.52;0.52;;;20.70;95.30;;;;;;5067022;28;20064;-68
2023/08/06 11:37:47;;;;;;;1.20;0.77;;;20.70;94.70;;;;;;5064476;28;20062;-68
2023/08/06 11:40:15;;;;;;;1.75;0.60;;;20.70;91.20;;;;;;5066648;28;20082;-68
2023/08/06 11:42:42;;;;;;;1.90;0.63;;;20.80;91.60;;;;;;5065735;28;20119;-68
2023/08/06 11:45:11;;;;;;;1.75;0.70;;;20.90;88.40;;;;;;5032563;28;20037;-68
2023/08/06 11:47:40;;;;;;;1.85;0.75;;;21.00;93.70;;;;;;5048690;28;20084;-68
2023/08/06 11:50:06;;;;;;;0.55;0.55;;;21.10;92.80;;;;;;5047828;28;20055;-68
2023/08/06 11:52:32;;;;;;;0.50;0.50;;;21.20;83.90;;;;;;5066683;28;20082;-68
2023/08/06 11:55:12;;;;;;;1.17;0.68;;;21.10;83.10;;;;;;5065414;28;20072;-68
2023/08/06 11:57:39;;;;;;;1.85;0.50;;;21.00;83.00;;;;;;5048479;28;20486;-67
2023/08/06 12:00:13;;;;;;;1.17;0.70;;;21.00;85.30;;;;;;5063570;28;20050;-69
2023/08/06 12:02:41;;;;;;;0.60;0.60;;;21.00;84.50;;;;;;5065107;28;20044;-68
2023/08/06 12:05:11;;;;;;;0.90;0.70;;;21.00;85.70;;;;;;5067152;28;20077;-67
2023/08/06 12:07:39;;;;;;;0.50;0.50;;;21.00;74.30;;;;;;5063665;28;20119;-68
2023/08/06 12:10:05;;;;;;;2.65;0.80;;;21.00;83.80;;;;;;5049070;28;20061;-68
2023/08/06 12:12:31;;;;;;;1.02;0.70;;;21.00;76.60;;;;;;5046872;28;20503;-67
2023/08/06 12:14:57;;;;;;;1.05;0.57;;;20.80;70.70;;;;;;5065536;28;20084;-68
2023/08/06 12:17:24;;;;;;;2.15;0.75;;;20.80;72.60;;;;;;5065214;28;20506;-68
2023/08/06 12:19:50;;;;;;;0.80;0.80;;;20.80;81.50;;;;;;5066708;28;20060;-67
2023/08/06 12:22:16;;;;;;;0.88;0.82;;;20.70;75.80;;;;;;5066850;28;20514;-67
2023/08/06 12:24:46;;;;;;;0.80;0.70;;;20.50;78.40;;;;;;5064635;28;20057;-68
2023/08/06 12:27:12;;;;;;;0.80;0.80;;;20.40;88.40;;;;;;5065456;28;20052;-68
2023/08/06 12:29:45;;;;;;;0.60;0.60;;;20.40;86.60;;;;;;5064839;28;20056;-69
2023/08/06 12:32:11;;;;;;;1.27;0.82;;;20.40;90.30;;;;;;5026919;28;20049;-68
2023/08/06 12:34:39;;;;;;;0.57;0.57;;;20.30;90.40;;;;;;5056648;28;20085;-68
2023/08/06 12:37:05;;;;;;;4.72;0.70;;;20.30;87.40;;;;;;5067100;28;20044;-68
2023/08/06 12:39:32;;;;;;;0.60;0.60;;;20.30;85.70;;;;;;5064788;28;20051;-68
2023/08/06 12:42:07;;;;;;;0.70;0.70;;;20.20;87.00;;;;;;5065994;28;20529;-68
2023/08/06 12:44:33;;;;;;;0.70;0.70;;;20.10;69.50;;;;;;5049636;28;20052;-67
2023/08/06 12:46:59;;;;;;;1.17;0.60;;;20.00;72.20;;;;;;5064526;28;20051;-68